Time;durP1;ratioP1;P1;durP2;ratioP2;P2;SDS_P1;SDS_P2;PMS_P1;PMS_P2;Temp;Humidity;BMP_temperature;BMP_pressure;BME280_temperature;BME280_humidity;BME280_pressure;Samples;Min_cycle;Max_cycle;Signal;HPM_P1;HPM_P2
2023/08/12 00:01:35;;;;;;;6.22;4.57;;;19.20;99.90;;;;;;5125683;27;20035;-67
2023/08/12 00:04:00;;;;;;;8.10;5.30;;;19.20;99.90;;;;;;5110576;28;20131;-67
2023/08/12 00:06:26;;;;;;;7.80;5.57;;;19.20;99.90;;;;;;5110850;28;20375;-66
2023/08/12 00:08:51;;;;;;;6.63;5.30;;;19.10;99.90;;;;;;5114736;27;20062;-66
2023/08/12 00:11:17;;;;;;;7.22;5.63;;;19.10;99.90;;;;;;5111944;27;20082;-67
2023/08/12 00:13:43;;;;;;;6.25;5.60;;;19.10;99.90;;;;;;5110623;27;20059;-65
2023/08/12 00:16:08;;;;;;;8.57;6.38;;;19.10;99.90;;;;;;5118054;27;20070;-67
2023/08/12 00:18:36;;;;;;;9.68;6.57;;;19.10;99.90;;;;;;5120297;27;20083;-67
2023/08/12 00:21:07;;;;;;;9.82;6.75;;;19.10;99.90;;;;;;5130964;27;20475;-67
2023/08/12 00:23:33;;;;;;;8.65;6.45;;;19.10;99.90;;;;;;5113947;27;20051;-66
2023/08/12 00:25:59;;;;;;;7.50;6.63;;;19.10;99.90;;;;;;5109272;27;20040;-66
2023/08/12 00:28:24;;;;;;;9.65;6.90;;;19.10;99.90;;;;;;5110007;28;20038;-68
2023/08/12 00:30:50;;;;;;;8.20;6.78;;;19.10;99.90;;;;;;5109982;27;20092;-67
2023/08/12 00:33:15;;;;;;;8.65;6.75;;;19.10;99.90;;;;;;5110156;28;20118;-66
2023/08/12 00:35:41;;;;;;;11.25;7.90;;;19.10;99.90;;;;;;5109996;28;20039;-65
2023/08/12 00:38:07;;;;;;;9.68;7.40;;;19.00;99.90;;;;;;5089627;28;20413;-67
2023/08/12 00:40:32;;;;;;;9.60;8.40;;;19.00;99.90;;;;;;5091678;28;20044;-66
2023/08/12 00:42:58;;;;;;;9.30;7.63;;;19.00;99.90;;;;;;5110004;28;20391;-66
2023/08/12 00:45:24;;;;;;;9.60;7.20;;;19.00;99.90;;;;;;5109613;28;20092;-66
2023/08/12 00:47:49;;;;;;;11.68;7.15;;;19.00;99.90;;;;;;5108747;28;20171;-67
2023/08/12 00:50:16;;;;;;;9.02;7.30;;;19.00;99.90;;;;;;5109925;28;20168;-66
2023/08/12 00:52:41;;;;;;;10.85;7.88;;;19.00;99.90;;;;;;5110034;28;20130;-66
2023/08/12 00:55:07;;;;;;;8.68;7.78;;;19.00;99.90;;;;;;5109978;28;20118;-66
2023/08/12 00:57:33;;;;;;;12.00;9.23;;;19.00;99.90;;;;;;5109821;27;20066;-66
2023/08/12 01:00:00;;;;;;;9.43;8.48;;;19.00;99.90;;;;;;5109874;28;20035;-66
2023/08/12 01:02:25;;;;;;;9.68;7.63;;;18.90;99.90;;;;;;5108295;27;20062;-67
2023/08/12 01:04:51;;;;;;;12.80;9.05;;;19.00;99.90;;;;;;5107803;28;20470;-67
2023/08/12 01:07:17;;;;;;;12.13;8.43;;;18.90;99.90;;;;;;5109234;28;20366;-66
2023/08/12 01:09:43;;;;;;;9.98;8.18;;;18.90;99.90;;;;;;5109419;28;20071;-65
2023/08/12 01:12:15;;;;;;;10.32;8.38;;;18.90;99.90;;;;;;5109447;28;20075;-66
2023/08/12 01:14:58;;;;;;;9.50;7.70;;;18.90;99.90;;;;;;5105350;28;20040;-66
2023/08/12 01:17:27;;;;;;;9.15;7.93;;;18.90;99.90;;;;;;5109107;28;20116;-65
2023/08/12 01:19:53;;;;;;;10.02;7.85;;;18.90;99.90;;;;;;5109004;28;20439;-66
2023/08/12 01:22:20;;;;;;;11.30;8.30;;;18.90;99.90;;;;;;5110837;28;20042;-67
2023/08/12 01:24:46;;;;;;;11.48;8.02;;;18.90;99.90;;;;;;5112718;27;20077;-65
2023/08/12 01:27:14;;;;;;;12.00;8.90;;;18.90;99.90;;;;;;5117184;27;20047;-66
2023/08/12 01:29:49;;;;;;;11.70;7.40;;;18.90;99.90;;;;;;5117479;27;20049;-67
2023/08/12 01:32:42;;;;;;;10.05;7.70;;;18.90;99.90;;;;;;5115649;27;20441;-66
2023/08/12 01:35:19;;;;;;;10.73;7.75;;;18.80;99.90;;;;;;5132744;27;20041;-67
2023/08/12 01:37:45;;;;;;;13.55;8.45;;;18.80;99.90;;;;;;5133032;27;20031;-66
2023/08/12 01:40:13;;;;;;;8.02;7.22;;;18.80;99.90;;;;;;5115771;27;20046;-65
2023/08/12 01:42:40;;;;;;;10.30;7.85;;;18.70;99.90;;;;;;5121435;27;20117;-67
2023/08/12 01:45:06;;;;;;;11.48;8.25;;;18.80;99.90;;;;;;5114037;27;20722;-67
2023/08/12 01:47:32;;;;;;;8.60;7.20;;;18.80;99.90;;;;;;5095500;28;20043;-66
2023/08/12 01:49:58;;;;;;;10.35;7.82;;;18.80;99.90;;;;;;5121137;27;20046;-66
2023/08/12 01:52:24;;;;;;;11.65;8.60;;;18.80;99.90;;;;;;5114534;27;20043;-66
2023/08/12 01:54:50;;;;;;;13.57;8.30;;;18.70;99.90;;;;;;5119485;27;20470;-67
2023/08/12 01:57:15;;;;;;;11.63;7.93;;;18.80;99.90;;;;;;5117147;27;20117;-65
2023/08/12 01:59:43;;;;;;;13.45;9.18;;;18.80;99.90;;;;;;5137190;27;20118;-65
2023/08/12 02:02:09;;;;;;;10.50;8.15;;;18.80;99.90;;;;;;5118514;27;20559;-66
2023/08/12 02:04:36;;;;;;;10.15;8.48;;;18.80;99.90;;;;;;5117383;27;20110;-66
2023/08/12 02:07:02;;;;;;;11.55;8.82;;;18.80;99.90;;;;;;5109509;27;20031;-66
2023/08/12 02:09:27;;;;;;;9.02;8.13;;;18.80;99.90;;;;;;5116717;27;20409;-66
2023/08/12 02:11:53;;;;;;;11.30;8.05;;;18.80;99.90;;;;;;5120474;27;20046;-67
2023/08/12 02:14:19;;;;;;;11.65;8.82;;;18.80;99.90;;;;;;5137163;27;20045;-65
2023/08/12 02:16:44;;;;;;;10.38;8.95;;;18.80;99.90;;;;;;5118008;27;20824;-67
2023/08/12 02:19:10;;;;;;;12.30;8.93;;;18.80;99.90;;;;;;5136618;27;20039;-66
2023/08/12 02:21:35;;;;;;;13.13;8.88;;;18.80;99.90;;;;;;5126638;27;20062;-66
2023/08/12 02:24:01;;;;;;;10.48;8.15;;;18.80;99.90;;;;;;5100258;27;20054;-66
2023/08/12 02:26:27;;;;;;;11.20;8.50;;;18.80;99.90;;;;;;5116619;27;20041;-67
2023/08/12 02:28:52;;;;;;;12.15;8.98;;;18.80;99.90;;;;;;5123440;27;20074;-66
2023/08/12 02:31:18;;;;;;;15.05;8.57;;;18.80;99.90;;;;;;5131662;27;20066;-66
2023/08/12 02:33:44;;;;;;;10.15;9.02;;;18.80;99.90;;;;;;5131153;27;20508;-66
2023/08/12 02:36:09;;;;;;;11.30;9.02;;;18.80;99.90;;;;;;5135633;27;20102;-67
2023/08/12 02:38:35;;;;;;;10.43;9.30;;;18.90;99.90;;;;;;5123628;27;20045;-67
2023/08/12 02:41:01;;;;;;;10.95;9.48;;;18.80;99.90;;;;;;5115551;27;20393;-66
2023/08/12 02:43:26;;;;;;;19.85;9.38;;;18.90;99.90;;;;;;5118015;27;20030;-66
2023/08/12 02:45:52;;;;;;;14.20;8.90;;;18.90;99.90;;;;;;5116242;27;20054;-66
2023/08/12 02:48:18;;;;;;;10.02;8.95;;;18.90;99.90;;;;;;5123512;27;20035;-66
2023/08/12 02:50:44;;;;;;;13.63;9.10;;;18.90;99.90;;;;;;5136311;27;20031;-68
2023/08/12 02:53:09;;;;;;;10.73;8.68;;;18.90;99.90;;;;;;5122865;27;20138;-66
2023/08/12 02:55:37;;;;;;;11.23;9.48;;;18.90;99.90;;;;;;5132938;27;20042;-66
2023/08/12 02:58:03;;;;;;;12.73;9.48;;;18.90;99.90;;;;;;5136169;27;20055;-66
2023/08/12 03:00:29;;;;;;;12.32;9.23;;;18.90;99.90;;;;;;5135711;27;20154;-66
2023/08/12 03:02:54;;;;;;;14.23;9.27;;;18.90;99.90;;;;;;5151552;27;20489;-66
2023/08/12 03:05:21;;;;;;;12.00;9.02;;;18.90;99.90;;;;;;5126025;27;20039;-66
2023/08/12 03:07:46;;;;;;;10.48;8.95;;;18.90;99.90;;;;;;5118017;27;20081;-67
2023/08/12 03:10:12;;;;;;;18.65;9.55;;;18.90;99.90;;;;;;5142192;27;20081;-66
2023/08/12 03:12:38;;;;;;;13.63;9.38;;;18.90;99.90;;;;;;5115022;27;20549;-66
2023/08/12 03:15:06;;;;;;;12.25;9.00;;;18.90;99.90;;;;;;5116495;27;20121;-65
2023/08/12 03:17:32;;;;;;;14.38;9.82;;;18.90;99.90;;;;;;5118710;27;20038;-66
2023/08/12 03:20:01;;;;;;;13.73;9.35;;;18.90;99.90;;;;;;5129191;27;20039;-67
2023/08/12 03:22:29;;;;;;;13.45;9.85;;;18.90;99.90;;;;;;5135024;27;20047;-67
2023/08/12 03:24:55;;;;;;;15.52;9.85;;;18.90;99.90;;;;;;5134620;27;20498;-66
2023/08/12 03:27:21;;;;;;;12.73;9.90;;;18.90;99.90;;;;;;5123235;27;20067;-65
2023/08/12 03:29:47;;;;;;;11.32;9.05;;;18.90;99.90;;;;;;5117906;27;20069;-67
2023/08/12 03:32:13;;;;;;;10.68;9.57;;;18.90;99.90;;;;;;5114870;27;20043;-66
2023/08/12 03:34:39;;;;;;;13.82;9.68;;;18.90;99.90;;;;;;5116922;27;20054;-66
2023/08/12 03:37:05;;;;;;;11.00;9.45;;;18.90;99.90;;;;;;5123094;27;20137;-65
2023/08/12 03:39:30;;;;;;;13.80;9.52;;;18.90;99.90;;;;;;5115296;27;20045;-66
2023/08/12 03:41:56;;;;;;;13.10;9.73;;;19.00;99.90;;;;;;5133281;27;20039;-66
2023/08/12 03:44:22;;;;;;;12.77;9.32;;;19.00;99.90;;;;;;5135526;27;20038;-67
2023/08/12 03:46:48;;;;;;;10.50;8.50;;;19.00;99.90;;;;;;5135076;27;20038;-67
2023/08/12 03:49:14;;;;;;;11.65;8.93;;;19.00;99.90;;;;;;5109903;27;20044;-65
2023/08/12 03:51:39;;;;;;;13.35;9.30;;;19.00;99.90;;;;;;5117008;27;20070;-66
2023/08/12 03:54:05;;;;;;;11.13;8.80;;;19.00;99.90;;;;;;5097604;27;20119;-66
2023/08/12 03:56:31;;;;;;;11.23;8.77;;;19.00;99.90;;;;;;5096018;27;20043;-66
2023/08/12 03:58:56;;;;;;;12.80;9.27;;;19.00;99.90;;;;;;5115104;27;20167;-65
2023/08/12 04:01:22;;;;;;;12.50;9.45;;;19.00;99.90;;;;;;5114561;27;20130;-67
2023/08/12 04:03:48;;;;;;;13.07;8.90;;;19.00;99.90;;;;;;5114109;27;20056;-67
2023/08/12 04:06:13;;;;;;;10.82;9.35;;;19.00;99.90;;;;;;5117678;27;20117;-65
2023/08/12 04:08:39;;;;;;;10.82;8.60;;;19.00;99.90;;;;;;5118713;27;20031;-66
2023/08/12 04:11:05;;;;;;;13.23;9.23;;;19.00;99.90;;;;;;5123501;27;20062;-67
2023/08/12 04:13:30;;;;;;;14.40;9.13;;;19.00;99.90;;;;;;5134208;27;20046;-66
2023/08/12 04:15:56;;;;;;;13.00;9.23;;;19.00;99.90;;;;;;5134419;27;20050;-66
2023/08/12 04:18:22;;;;;;;12.55;9.15;;;19.00;99.90;;;;;;5134846;27;20066;-66
2023/08/12 04:20:49;;;;;;;13.45;9.30;;;19.00;99.90;;;;;;5120144;27;20050;-66
2023/08/12 04:23:15;;;;;;;12.88;9.75;;;19.00;99.90;;;;;;5121207;27;20055;-67
2023/08/12 04:25:44;;;;;;;14.98;10.07;;;19.00;99.90;;;;;;5134533;27;20051;-65
2023/08/12 04:28:11;;;;;;;15.90;10.55;;;19.00;99.90;;;;;;5108174;27;20038;-66
2023/08/12 04:30:43;;;;;;;14.48;10.40;;;19.00;99.90;;;;;;5125019;27;20035;-67
2023/08/12 04:33:09;;;;;;;12.85;10.63;;;19.00;99.90;;;;;;5133278;27;20035;-66
2023/08/12 04:35:35;;;;;;;12.07;9.88;;;19.00;99.90;;;;;;5134079;27;20043;-67
2023/08/12 04:38:00;;;;;;;15.93;10.10;;;19.00;99.90;;;;;;5127934;27;20070;-66
2023/08/12 04:40:26;;;;;;;15.18;11.02;;;19.00;99.90;;;;;;5121090;27;20030;-66
2023/08/12 04:42:52;;;;;;;16.02;10.63;;;19.00;99.90;;;;;;5133690;27;20042;-66
2023/08/12 04:45:17;;;;;;;16.67;10.73;;;19.00;99.90;;;;;;5133272;27;20033;-67
2023/08/12 04:47:43;;;;;;;15.15;11.63;;;19.00;99.90;;;;;;5133459;27;20065;-67
2023/08/12 04:50:09;;;;;;;14.20;10.90;;;19.00;99.90;;;;;;5133702;27;20125;-67
2023/08/12 04:52:34;;;;;;;18.52;12.18;;;19.00;99.90;;;;;;5130441;27;20118;-66
2023/08/12 04:55:00;;;;;;;16.20;12.40;;;19.00;99.90;;;;;;5115709;27;20038;-65
2023/08/12 04:57:26;;;;;;;16.33;11.30;;;19.00;99.90;;;;;;5123722;27;20489;-66
2023/08/12 04:59:52;;;;;;;14.02;12.32;;;19.00;99.90;;;;;;5116411;27;20047;-66
2023/08/12 05:02:20;;;;;;;15.95;12.13;;;19.00;99.90;;;;;;5119252;27;20464;-66
2023/08/12 05:04:51;;;;;;;19.20;12.45;;;19.00;99.90;;;;;;5095469;27;20042;-66
2023/08/12 05:07:18;;;;;;;21.25;13.15;;;19.10;99.90;;;;;;5132297;27;20051;-66
2023/08/12 05:09:44;;;;;;;18.38;13.93;;;19.10;99.90;;;;;;5118921;27;20116;-66
2023/08/12 05:12:10;;;;;;;19.27;14.02;;;19.10;99.90;;;;;;5114684;27;20042;-66
2023/08/12 05:14:37;;;;;;;21.00;13.80;;;19.10;99.90;;;;;;5131544;27;20046;-65
2023/08/12 05:17:02;;;;;;;20.38;13.73;;;19.10;99.90;;;;;;5125745;27;20092;-66
2023/08/12 05:19:28;;;;;;;16.90;13.60;;;19.10;99.90;;;;;;5117622;27;20034;-66
2023/08/12 05:21:54;;;;;;;19.27;14.70;;;19.20;99.90;;;;;;5121120;27;20046;-66
2023/08/12 05:24:19;;;;;;;22.27;14.32;;;19.20;99.90;;;;;;5128418;27;20143;-65
2023/08/12 05:26:45;;;;;;;20.35;14.80;;;19.30;99.90;;;;;;5129757;27;20031;-66
2023/08/12 05:29:11;;;;;;;20.20;15.50;;;19.30;99.90;;;;;;5106072;27;20049;-66
2023/08/12 05:31:36;;;;;;;20.45;14.75;;;19.40;99.90;;;;;;5122374;27;20434;-66
2023/08/12 05:34:02;;;;;;;20.48;15.05;;;19.40;99.90;;;;;;5125865;27;20446;-66
2023/08/12 05:36:28;;;;;;;19.88;14.65;;;19.50;99.90;;;;;;5123077;27;20090;-66
2023/08/12 05:38:54;;;;;;;21.02;15.55;;;19.60;99.90;;;;;;5130724;27;20047;-66
2023/08/12 05:41:20;;;;;;;19.30;14.55;;;19.60;99.90;;;;;;5114694;27;20043;-65
2023/08/12 05:43:50;;;;;;;20.50;15.45;;;19.70;99.90;;;;;;5133348;27;20038;-67
2023/08/12 05:46:28;;;;;;;24.15;16.33;;;19.70;99.90;;;;;;5114476;27;20060;-67
2023/08/12 05:48:57;;;;;;;21.70;16.30;;;19.80;99.90;;;;;;5129615;27;20034;-68
2023/08/12 05:51:23;;;;;;;21.63;15.65;;;19.80;99.90;;;;;;5115795;27;20054;-67
2023/08/12 05:54:04;;;;;;;22.45;16.52;;;19.80;99.90;;;;;;5124374;28;20184;-67
2023/08/12 05:56:33;;;;;;;23.13;16.83;;;19.80;99.90;;;;;;5132913;27;20397;-66
2023/08/12 05:58:59;;;;;;;20.25;16.35;;;19.80;99.90;;;;;;5116027;27;20405;-68
2023/08/12 06:01:34;;;;;;;22.05;15.55;;;19.80;99.90;;;;;;5134731;27;20074;-68
2023/08/12 06:04:00;;;;;;;20.88;16.40;;;19.90;99.90;;;;;;5133126;27;20138;-68
2023/08/12 06:06:26;;;;;;;23.70;17.27;;;19.90;99.90;;;;;;5143955;27;20156;-67
2023/08/12 06:08:51;;;;;;;21.10;17.45;;;19.90;99.90;;;;;;5125970;27;20043;-67
2023/08/12 06:11:17;;;;;;;23.25;17.20;;;19.90;99.90;;;;;;5131700;27;20046;-66
2023/08/12 06:13:43;;;;;;;24.13;16.90;;;19.90;99.90;;;;;;5122350;27;20043;-68
2023/08/12 06:16:08;;;;;;;24.90;17.25;;;19.90;99.90;;;;;;5122428;27;20042;-66
2023/08/12 06:18:34;;;;;;;22.65;17.08;;;19.90;99.90;;;;;;5117761;27;20397;-67
2023/08/12 06:20:59;;;;;;;20.30;16.70;;;19.90;99.90;;;;;;5120894;27;20055;-67
2023/08/12 06:23:25;;;;;;;25.42;18.02;;;19.90;99.90;;;;;;5095009;28;20501;-66
2023/08/12 06:25:51;;;;;;;23.98;18.08;;;20.00;99.90;;;;;;5095416;28;20051;-66
2023/08/12 06:28:16;;;;;;;23.50;17.63;;;20.00;99.90;;;;;;5094145;28;20044;-66
2023/08/12 06:30:45;;;;;;;25.65;18.13;;;20.00;99.90;;;;;;5106366;28;20043;-66
2023/08/12 06:33:11;;;;;;;22.33;17.98;;;20.00;99.90;;;;;;5104998;28;20048;-67
2023/08/12 06:35:36;;;;;;;22.77;18.98;;;20.00;99.90;;;;;;5102658;28;20143;-66
2023/08/12 06:38:03;;;;;;;22.50;17.88;;;20.00;99.90;;;;;;5102621;28;20047;-64
2023/08/12 06:40:30;;;;;;;22.80;18.23;;;20.10;99.90;;;;;;5098152;28;20124;-66
2023/08/12 06:42:56;;;;;;;22.08;18.20;;;20.10;99.90;;;;;;5099556;28;20075;-67
2023/08/12 06:45:22;;;;;;;23.67;19.45;;;20.10;99.90;;;;;;5098849;28;20082;-66
2023/08/12 06:47:47;;;;;;;24.38;17.98;;;20.00;99.90;;;;;;5101394;28;20192;-67
2023/08/12 06:50:13;;;;;;;24.42;19.75;;;20.10;99.90;;;;;;5079234;28;20064;-68
2023/08/12 06:52:38;;;;;;;20.30;18.08;;;20.10;99.90;;;;;;5093205;28;20047;-67
2023/08/12 06:55:05;;;;;;;24.00;19.05;;;20.00;99.90;;;;;;5099929;28;20079;-67
2023/08/12 06:57:30;;;;;;;24.05;19.85;;;20.00;99.90;;;;;;5095275;28;20040;-66
2023/08/12 06:59:56;;;;;;;23.10;19.45;;;20.00;99.90;;;;;;5095805;28;21422;-67
2023/08/12 07:02:22;;;;;;;24.02;18.65;;;20.00;99.90;;;;;;5084072;28;20051;-66
2023/08/12 07:04:48;;;;;;;27.88;20.45;;;20.00;99.90;;;;;;5099859;28;20032;-67
2023/08/12 07:07:13;;;;;;;23.52;18.33;;;20.00;99.90;;;;;;5098929;28;20397;-67
2023/08/12 07:09:39;;;;;;;25.02;20.27;;;20.00;99.90;;;;;;5100960;28;20050;-67
2023/08/12 07:12:05;;;;;;;26.00;19.15;;;20.00;99.90;;;;;;5101642;28;20042;-67
2023/08/12 07:14:31;;;;;;;25.13;19.40;;;20.00;99.90;;;;;;5076428;28;20083;-66
2023/08/12 07:16:56;;;;;;;20.73;18.27;;;20.00;99.90;;;;;;5090947;28;20123;-68
2023/08/12 07:19:22;;;;;;;24.40;19.50;;;20.00;99.90;;;;;;5074000;28;20410;-65
2023/08/12 07:21:48;;;;;;;23.23;19.30;;;20.10;99.90;;;;;;5100001;28;20047;-66
2023/08/12 07:24:13;;;;;;;23.73;19.33;;;20.10;99.90;;;;;;5124371;27;21346;-67
2023/08/12 07:26:39;;;;;;;23.35;19.65;;;20.10;99.90;;;;;;5130480;27;20046;-67
2023/08/12 07:29:05;;;;;;;25.67;19.60;;;20.10;99.90;;;;;;5128512;27;20034;-68
2023/08/12 07:31:30;;;;;;;21.05;17.85;;;20.10;99.90;;;;;;5128192;27;20083;-68
2023/08/12 07:33:56;;;;;;;20.30;18.05;;;20.10;99.90;;;;;;5115003;27;20051;-65
2023/08/12 07:36:22;;;;;;;24.23;19.13;;;20.10;99.90;;;;;;5133697;27;20064;-65
2023/08/12 07:38:47;;;;;;;22.73;18.15;;;20.10;99.90;;;;;;5125260;27;20620;-65
2023/08/12 07:41:13;;;;;;;25.25;19.73;;;20.10;99.90;;;;;;5153845;27;20030;-66
2023/08/12 07:43:39;;;;;;;23.58;18.48;;;20.10;99.90;;;;;;5145969;27;20042;-65
2023/08/12 07:46:05;;;;;;;22.98;18.60;;;20.10;99.90;;;;;;5117470;27;20035;-66
2023/08/12 07:48:30;;;;;;;23.20;19.13;;;20.10;99.90;;;;;;5116851;27;20203;-65
2023/08/12 07:50:57;;;;;;;25.30;20.17;;;20.10;99.90;;;;;;5119915;27;20122;-66
2023/08/12 07:53:23;;;;;;;25.02;19.05;;;20.00;99.90;;;;;;5100833;27;20046;-65
2023/08/12 07:55:49;;;;;;;24.08;18.90;;;20.00;99.90;;;;;;5116087;27;20050;-66
2023/08/12 07:58:15;;;;;;;25.00;18.67;;;20.00;99.90;;;;;;5115234;27;20039;-66
2023/08/12 08:00:40;;;;;;;25.10;19.60;;;20.00;99.90;;;;;;5126276;27;20651;-67
2023/08/12 08:03:06;;;;;;;22.00;18.23;;;20.00;99.90;;;;;;5133984;27;20127;-68
2023/08/12 08:05:32;;;;;;;28.05;19.75;;;20.00;99.90;;;;;;5120078;27;20042;-67
2023/08/12 08:07:57;;;;;;;24.40;18.85;;;19.90;99.90;;;;;;5113964;27;20134;-66
2023/08/12 08:10:23;;;;;;;23.63;19.05;;;19.90;99.90;;;;;;5122439;27;20065;-67
2023/08/12 08:12:49;;;;;;;25.75;18.90;;;19.90;99.90;;;;;;5115551;27;20043;-64
2023/08/12 08:15:15;;;;;;;21.10;17.65;;;19.90;99.90;;;;;;5122311;27;20516;-66
2023/08/12 08:17:40;;;;;;;24.20;19.50;;;19.90;99.90;;;;;;5118589;27;20120;-67
2023/08/12 08:20:06;;;;;;;22.85;18.15;;;19.90;99.90;;;;;;5114763;27;20039;-67
2023/08/12 08:22:32;;;;;;;23.15;18.25;;;19.90;99.90;;;;;;5149450;27;20039;-66
2023/08/12 08:24:58;;;;;;;20.67;17.85;;;19.90;99.90;;;;;;5114196;27;20444;-66
2023/08/12 08:27:24;;;;;;;21.35;17.83;;;19.80;99.90;;;;;;5116358;27;20069;-67
2023/08/12 08:29:50;;;;;;;20.70;16.60;;;19.80;99.90;;;;;;5120792;27;20049;-69
2023/08/12 08:32:16;;;;;;;17.75;14.85;;;19.80;99.90;;;;;;5126238;27;20397;-66
2023/08/12 08:34:42;;;;;;;14.57;12.48;;;19.80;99.90;;;;;;5149939;27;20039;-66
2023/08/12 08:37:08;;;;;;;11.32;10.07;;;19.80;99.90;;;;;;5117481;27;20046;-66
2023/08/12 08:39:33;;;;;;;11.65;9.60;;;19.80;99.90;;;;;;5134476;27;20107;-67
2023/08/12 08:41:59;;;;;;;11.15;9.88;;;19.70;99.90;;;;;;5132457;27;20039;-66
2023/08/12 08:44:31;;;;;;;12.40;9.52;;;19.70;99.90;;;;;;5117846;27;20043;-68
2023/08/12 08:46:58;;;;;;;10.80;9.40;;;19.70;99.90;;;;;;5130870;27;20031;-67
2023/08/12 08:49:25;;;;;;;12.85;9.57;;;19.70;99.90;;;;;;5106056;27;20039;-68
2023/08/12 08:51:52;;;;;;;11.13;9.35;;;19.70;99.90;;;;;;5118875;27;20401;-66
2023/08/12 08:54:19;;;;;;;8.07;7.00;;;19.70;99.90;;;;;;5117364;27;20045;-67
2023/08/12 08:56:45;;;;;;;6.53;5.82;;;19.70;99.90;;;;;;5113261;27;20035;-66
2023/08/12 08:59:11;;;;;;;8.20;7.20;;;19.60;99.90;;;;;;5114102;27;20035;-65
2023/08/12 09:01:37;;;;;;;8.10;6.97;;;19.60;99.90;;;;;;5118043;27;20039;-67
2023/08/12 09:04:05;;;;;;;8.35;7.35;;;19.60;99.90;;;;;;5113289;27;20039;-68
2023/08/12 09:06:33;;;;;;;7.45;6.75;;;19.60;99.90;;;;;;5128752;27;20133;-67
2023/08/12 09:09:00;;;;;;;6.45;5.75;;;19.60;99.90;;;;;;5133228;27;20062;-66
2023/08/12 09:11:26;;;;;;;6.53;5.72;;;19.60;99.90;;;;;;5133429;27;20051;-65
2023/08/12 09:13:52;;;;;;;8.30;5.65;;;19.60;99.90;;;;;;5152261;27;20276;-66
2023/08/12 09:16:18;;;;;;;5.85;4.53;;;19.70;99.90;;;;;;5124761;27;20520;-65
2023/08/12 09:18:44;;;;;;;4.68;3.97;;;19.60;99.90;;;;;;5133697;27;20039;-66
2023/08/12 09:21:10;;;;;;;5.68;4.28;;;19.60;99.90;;;;;;5132534;27;20031;-66
2023/08/12 09:23:42;;;;;;;5.57;4.32;;;19.60;99.90;;;;;;5125518;27;20078;-66
2023/08/12 09:26:14;;;;;;;8.32;4.40;;;19.60;99.90;;;;;;5110348;28;20040;-65
2023/08/12 09:28:39;;;;;;;4.60;4.07;;;19.60;99.90;;;;;;5109256;28;20047;-65
2023/08/12 09:31:05;;;;;;;3.78;3.25;;;19.60;99.90;;;;;;5108769;27;20047;-65
2023/08/12 09:33:30;;;;;;;5.03;3.38;;;19.60;99.90;;;;;;5108550;28;20075;-65
2023/08/12 09:35:57;;;;;;;3.90;3.28;;;19.60;99.90;;;;;;5109697;28;20040;-65
2023/08/12 09:38:22;;;;;;;2.50;1.80;;;19.60;99.90;;;;;;5107846;28;20045;-65
2023/08/12 09:40:48;;;;;;;1.98;1.67;;;19.60;99.90;;;;;;5109393;28;20085;-64
2023/08/12 09:43:16;;;;;;;1.92;1.42;;;19.50;99.90;;;;;;5110237;28;20040;-68
2023/08/12 09:45:44;;;;;;;2.38;1.20;;;19.50;99.90;;;;;;5092067;28;20051;-66
2023/08/12 09:48:10;;;;;;;1.75;1.40;;;19.50;99.90;;;;;;5108420;28;20040;-64
2023/08/12 09:50:36;;;;;;;1.85;1.42;;;19.50;99.90;;;;;;5109077;28;20099;-66
2023/08/12 09:53:03;;;;;;;2.85;1.70;;;19.50;99.90;;;;;;5107815;28;20047;-68
2023/08/12 09:55:31;;;;;;;2.47;1.63;;;19.50;99.90;;;;;;5107247;28;20040;-63
2023/08/12 09:57:59;;;;;;;5.13;2.17;;;19.50;99.90;;;;;;5109100;28;20035;-64
2023/08/12 10:00:25;;;;;;;2.88;1.80;;;19.50;99.90;;;;;;5108999;28;20047;-64
2023/08/12 10:02:51;;;;;;;1.63;1.42;;;19.50;99.90;;;;;;5108075;28;20043;-65
2023/08/12 10:05:32;;;;;;;2.17;1.20;;;19.50;99.90;;;;;;5109384;28;20071;-66
2023/08/12 10:07:58;;;;;;;1.42;1.10;;;19.50;99.90;;;;;;5108576;28;20067;-67
2023/08/12 10:10:25;;;;;;;0.80;0.80;;;19.40;99.90;;;;;;5108581;28;20073;-65
2023/08/12 10:12:51;;;;;;;1.70;1.13;;;19.40;99.90;;;;;;5115566;27;20142;-66
2023/08/12 10:15:17;;;;;;;1.27;1.05;;;19.40;99.90;;;;;;5114329;27;20032;-65
2023/08/12 10:17:43;;;;;;;2.25;1.40;;;19.30;99.90;;;;;;5118698;27;20027;-64
2023/08/12 10:20:13;;;;;;;1.50;1.17;;;19.40;99.90;;;;;;5128406;27;20044;-65
2023/08/12 10:22:40;;;;;;;2.10;1.33;;;19.40;99.90;;;;;;5095531;28;20047;-66
2023/08/12 10:25:11;;;;;;;1.40;1.27;;;19.50;99.90;;;;;;5112434;28;20058;-66
2023/08/12 10:27:37;;;;;;;2.58;1.38;;;19.50;99.90;;;;;;5112391;28;20051;-66
2023/08/12 10:30:07;;;;;;;1.80;1.38;;;19.50;99.90;;;;;;5114064;27;20095;-66
2023/08/12 10:32:34;;;;;;;1.58;1.33;;;19.50;99.90;;;;;;5121596;27;20054;-67
2023/08/12 10:35:00;;;;;;;2.45;1.40;;;19.50;99.90;;;;;;5121594;27;20051;-67
2023/08/12 10:37:27;;;;;;;1.60;1.50;;;19.50;99.90;;;;;;5125330;27;20138;-66
2023/08/12 10:39:53;;;;;;;1.73;1.63;;;19.50;99.90;;;;;;5115022;27;20155;-66
2023/08/12 10:42:39;;;;;;;2.40;2.10;;;19.60;99.90;;;;;;5125602;27;20047;-66
2023/08/12 10:45:09;;;;;;;3.13;2.30;;;19.60;99.90;;;;;;5120952;27;20112;-66
2023/08/12 10:47:48;;;;;;;3.30;2.38;;;19.60;99.90;;;;;;5123674;27;20039;-66
2023/08/12 10:50:21;;;;;;;2.50;2.30;;;19.70;99.90;;;;;;5119427;27;20106;-66
2023/08/12 10:52:50;;;;;;;3.00;2.35;;;19.70;99.90;;;;;;5113547;27;20108;-62
2023/08/12 10:55:27;;;;;;;3.03;2.47;;;19.70;99.90;;;;;;5117099;27;20042;-64
2023/08/12 10:57:55;;;;;;;2.38;2.17;;;19.90;99.90;;;;;;5112235;28;20050;-63
2023/08/12 11:00:24;;;;;;;2.22;2.03;;;20.00;99.90;;;;;;5113265;27;20074;-63
2023/08/12 11:02:56;;;;;;;2.13;1.92;;;20.00;99.90;;;;;;5115374;27;20078;-65
2023/08/12 11:05:22;;;;;;;2.63;1.93;;;20.10;99.90;;;;;;5112676;28;20035;-63
2023/08/12 11:07:55;;;;;;;1.80;1.42;;;20.00;99.90;;;;;;5126286;27;20296;-63
2023/08/12 11:10:25;;;;;;;1.92;1.27;;;19.90;99.90;;;;;;5132469;27;20509;-63
2023/08/12 11:12:51;;;;;;;1.30;1.10;;;20.00;99.90;;;;;;5123010;27;20042;-63
2023/08/12 11:15:17;;;;;;;1.23;1.00;;;20.10;99.90;;;;;;5122867;27;20035;-62
2023/08/12 11:17:43;;;;;;;1.75;1.35;;;20.10;99.90;;;;;;5132531;27;20039;-62
2023/08/12 11:20:10;;;;;;;1.17;1.10;;;20.30;99.90;;;;;;5123863;27;20473;-63
2023/08/12 11:22:44;;;;;;;4.05;1.30;;;20.30;99.90;;;;;;5130577;27;20401;-61
2023/08/12 11:25:13;;;;;;;1.95;0.90;;;20.40;99.90;;;;;;5117908;27;20047;-61
2023/08/12 11:27:44;;;;;;;1.50;1.40;;;20.40;99.90;;;;;;5132232;27;20070;-62
2023/08/12 11:30:17;;;;;;;0.90;0.90;;;20.40;99.90;;;;;;5123059;27;20046;-62
2023/08/12 11:32:45;;;;;;;1.30;1.00;;;20.50;99.90;;;;;;5132172;27;20094;-62
2023/08/12 11:35:12;;;;;;;1.25;0.90;;;20.50;99.90;;;;;;5118985;27;20035;-63
2023/08/12 11:37:42;;;;;;;1.80;1.13;;;20.30;99.90;;;;;;5118218;27;20071;-62
2023/08/12 11:40:09;;;;;;;3.22;1.40;;;19.80;99.90;;;;;;5132094;27;20122;-62
2023/08/12 11:42:37;;;;;;;2.22;1.42;;;19.50;99.90;;;;;;5113421;27;20036;-62
2023/08/12 11:45:04;;;;;;;2.63;1.60;;;19.40;99.90;;;;;;5119677;27;20047;-62
2023/08/12 11:47:29;;;;;;;4.38;1.95;;;19.30;99.90;;;;;;5112642;27;20039;-62
2023/08/12 11:49:55;;;;;;;3.08;1.88;;;19.10;99.90;;;;;;5123332;27;20398;-63
2023/08/12 11:52:21;;;;;;;3.25;2.08;;;19.10;99.90;;;;;;5131498;27;20039;-63
2023/08/12 11:54:49;;;;;;;2.92;2.00;;;19.20;99.90;;;;;;5124622;27;20039;-64
2023/08/12 11:57:14;;;;;;;2.70;2.05;;;19.40;99.90;;;;;;5110676;28;20112;-63
2023/08/12 11:59:40;;;;;;;3.60;1.65;;;19.60;99.90;;;;;;5111318;28;20051;-61
2023/08/12 12:02:06;;;;;;;4.38;2.00;;;19.70;99.90;;;;;;5112392;28;20043;-61
2023/08/12 12:04:32;;;;;;;2.38;1.38;;;19.80;99.90;;;;;;5115643;27;20131;-61
2023/08/12 12:06:59;;;;;;;2.78;1.50;;;19.90;99.90;;;;;;5129684;27;20062;-60
2023/08/12 12:09:26;;;;;;;2.50;1.63;;;20.00;99.90;;;;;;5130018;27;20397;-63
2023/08/12 12:11:55;;;;;;;3.55;1.75;;;19.90;99.90;;;;;;5125107;27;20047;-62
2023/08/12 12:14:21;;;;;;;4.40;1.50;;;19.90;99.90;;;;;;5118947;27;20036;-65
2023/08/12 12:16:48;;;;;;;3.60;1.48;;;19.80;99.90;;;;;;5115802;27;20146;-63
2023/08/12 12:19:17;;;;;;;3.15;1.50;;;19.80;99.90;;;;;;5110963;27;20123;-63
2023/08/12 12:21:47;;;;;;;4.25;1.60;;;20.00;99.90;;;;;;5111747;27;20067;-63
2023/08/12 12:24:13;;;;;;;6.47;1.77;;;20.10;99.90;;;;;;5113799;27;20043;-63
2023/08/12 12:26:39;;;;;;;8.88;1.73;;;20.10;99.90;;;;;;5132442;27;20459;-62
2023/08/12 12:29:06;;;;;;;4.40;1.95;;;20.20;99.90;;;;;;5120637;27;20050;-62
2023/08/12 12:31:35;;;;;;;5.63;2.00;;;20.20;99.90;;;;;;5135298;27;20046;-62
2023/08/12 12:34:04;;;;;;;4.93;2.15;;;20.40;99.90;;;;;;5133844;27;20043;-62
2023/08/12 12:36:30;;;;;;;6.13;2.22;;;20.50;99.90;;;;;;5132037;27;20477;-61